createdAt,value
2023-05-22T00:02:59.435Z,15.93
2023-05-22T00:08:20.088Z,14.48
2023-05-22T00:13:40.595Z,18.50
2023-05-22T00:19:02.064Z,15.57
2023-05-22T00:24:22.617Z,19.90
2023-05-22T00:29:43.247Z,16.80
2023-05-22T00:35:04.084Z,15.13
2023-05-22T00:40:24.524Z,16.38
2023-05-22T00:45:45.853Z,18.27
2023-05-22T00:51:07.623Z,19.38
2023-05-22T00:56:29.128Z,18.33
2023-05-22T01:01:50.550Z,21.83
2023-05-22T01:07:11.184Z,15.93
2023-05-22T01:12:56.851Z,21.75
2023-05-22T01:18:30.188Z,14.88
2023-05-22T01:24:16.375Z,16.65
2023-05-22T01:29:58.936Z,17.60
2023-05-22T01:35:21.880Z,17.42
2023-05-22T01:40:45.802Z,16.30
2023-05-22T01:46:06.820Z,14.68
2023-05-22T01:51:52.013Z,13.85
2023-05-22T01:57:21.952Z,16.70
2023-05-22T02:02:48.503Z,15.70
2023-05-22T02:08:31.276Z,15.93
2023-05-22T02:13:52.578Z,14.55
2023-05-22T02:19:15.224Z,13.20
2023-05-22T02:24:36.956Z,16.08
2023-05-22T02:29:57.420Z,19.63
2023-05-22T02:35:18.373Z,17.02
2023-05-22T02:40:39.629Z,13.52
2023-05-22T02:46:00.667Z,14.90
2023-05-22T02:51:21.969Z,22.30
2023-05-22T02:56:43.372Z,17.55
2023-05-22T03:02:05.720Z,17.67
2023-05-22T03:07:27.116Z,23.33
2023-05-22T03:12:48.275Z,15.77
2023-05-22T03:18:08.919Z,17.75
2023-05-22T03:23:29.442Z,18.05
2023-05-22T03:28:50.766Z,19.65
2023-05-22T03:34:12.136Z,17.33
2023-05-22T03:39:33.343Z,18.30
2023-05-22T03:45:05.185Z,15.63
2023-05-22T03:50:26.196Z,13.45
2023-05-22T03:55:47.257Z,15.38
2023-05-22T04:01:10.129Z,14.38
2023-05-22T04:06:32.908Z,9.27
2023-05-22T04:11:54.082Z,12.48
2023-05-22T04:17:16.048Z,15.23
2023-05-22T04:22:36.799Z,9.30
2023-05-22T04:27:57.387Z,16.25
2023-05-22T04:33:18.162Z,12.30
2023-05-22T04:38:38.669Z,21.30
2023-05-22T04:44:00.408Z,12.52
2023-05-22T04:49:21.251Z,14.40
2023-05-22T04:54:43.361Z,17.98
2023-05-22T05:00:26.446Z,12.32
2023-05-22T05:11:08.826Z,12.15
2023-05-22T05:16:30.008Z,9.65
2023-05-22T05:21:53.580Z,12.07
2023-05-22T05:27:15.475Z,13.05
2023-05-22T05:32:36.695Z,15.10
2023-05-22T05:38:17.449Z,15.43
2023-05-22T05:43:38.479Z,16.65
2023-05-22T05:49:10.002Z,14.10
2023-05-22T05:54:32.170Z,14.57
2023-05-22T05:59:58.536Z,13.68
2023-05-22T06:05:38.144Z,15.18
2023-05-22T06:11:15.385Z,10.00
2023-05-22T06:16:46.514Z,11.07
2023-05-22T06:22:06.997Z,8.70
2023-05-22T06:27:29.186Z,20.83
2023-05-22T06:32:49.983Z,12.98
2023-05-22T06:38:12.428Z,11.38
2023-05-22T06:43:35.094Z,9.73
2023-05-22T06:49:06.253Z,11.35
2023-05-22T06:54:30.389Z,15.52
2023-05-22T06:59:52.044Z,11.55
2023-05-22T07:05:44.751Z,14.40
2023-05-22T07:11:08.619Z,11.77
2023-05-22T07:16:31.410Z,12.60
2023-05-22T07:21:52.301Z,14.70
2023-05-22T07:27:14.895Z,10.80
2023-05-22T07:32:35.760Z,15.27
2023-05-22T07:37:57.842Z,11.82
2023-05-22T07:43:19.210Z,7.95
2023-05-22T07:48:39.967Z,12.73
2023-05-22T07:54:00.842Z,11.82
2023-05-22T07:59:22.004Z,9.38
2023-05-22T08:04:44.604Z,10.10
2023-05-22T08:10:15.968Z,12.68
2023-05-22T08:15:36.421Z,14.98
2023-05-22T08:20:57.525Z,11.70
2023-05-22T08:26:18.565Z,9.48
2023-05-22T08:31:39.106Z,8.00
2023-05-22T08:37:00.036Z,13.00
2023-05-22T08:42:20.642Z,10.38
2023-05-22T08:47:44.400Z,9.13
2023-05-22T08:53:08.443Z,9.93
2023-05-22T09:03:51.527Z,12.23
2023-05-22T09:09:12.536Z,12.90
2023-05-22T09:14:40.879Z,8.20
2023-05-22T09:20:02.056Z,7.55
2023-05-22T09:25:23.241Z,10.57
2023-05-22T09:30:49.596Z,11.48
2023-05-22T09:36:10.617Z,9.80
2023-05-22T09:41:35.376Z,7.30
2023-05-22T09:46:55.767Z,11.73
2023-05-22T09:52:18.223Z,10.73
2023-05-22T09:57:46.407Z,10.70
2023-05-22T10:03:12.503Z,9.88
2023-05-22T10:08:41.825Z,8.18
2023-05-22T10:14:03.673Z,9.60
2023-05-22T10:19:27.272Z,14.73
2023-05-22T10:24:48.660Z,12.27
2023-05-22T10:30:16.254Z,8.27
2023-05-22T10:41:35.150Z,6.55
2023-05-22T10:46:55.942Z,5.60
2023-05-22T10:52:19.018Z,11.80
2023-05-22T10:57:40.323Z,10.67
2023-05-22T11:03:17.375Z,14.13
2023-05-22T11:08:39.000Z,19.02
2023-05-22T11:14:05.837Z,15.35
2023-05-22T11:19:26.766Z,18.08
2023-05-22T11:24:47.720Z,14.57
2023-05-22T11:30:09.756Z,10.82
2023-05-22T11:35:30.573Z,21.73
2023-05-22T11:40:51.941Z,12.77
2023-05-22T11:46:13.971Z,19.05
2023-05-22T11:51:34.844Z,15.30
2023-05-22T11:56:55.827Z,12.52
2023-05-22T12:02:17.131Z,14.50
2023-05-22T12:07:37.789Z,14.45
2023-05-22T12:12:58.376Z,19.27
2023-05-22T12:18:19.746Z,11.80
2023-05-22T12:23:48.934Z,13.40
2023-05-22T12:29:09.626Z,12.18
2023-05-22T12:34:43.939Z,18.40
2023-05-22T12:40:05.151Z,13.98
2023-05-22T12:45:25.818Z,13.95
2023-05-22T12:50:46.960Z,11.35
2023-05-22T12:56:07.857Z,12.43
2023-05-22T13:01:28.394Z,18.90
2023-05-22T13:06:48.918Z,15.27
2023-05-22T13:12:11.206Z,20.88
2023-05-22T13:17:32.284Z,10.95
2023-05-22T13:22:52.993Z,15.38
2023-05-22T13:28:13.589Z,18.55
2023-05-22T13:33:34.174Z,16.42
2023-05-22T13:38:54.748Z,17.23
2023-05-22T13:44:15.591Z,20.05
2023-05-22T13:49:35.971Z,12.32
2023-05-22T13:54:56.827Z,18.40
2023-05-22T14:00:18.329Z,11.85
2023-05-22T14:05:40.048Z,13.27
2023-05-22T14:11:00.952Z,12.38
2023-05-22T14:16:22.454Z,10.27
2023-05-22T14:21:42.883Z,11.60
2023-05-22T14:27:03.332Z,13.32
2023-05-22T14:32:24.056Z,16.52
2023-05-22T14:37:44.595Z,12.07
2023-05-22T14:43:05.720Z,13.25
2023-05-22T14:48:26.637Z,11.20
2023-05-22T14:53:47.472Z,15.95
2023-05-22T14:59:07.949Z,17.80
2023-05-22T15:04:28.394Z,15.38
2023-05-22T15:09:48.976Z,15.60
2023-05-22T15:15:10.208Z,12.27
2023-05-22T15:20:31.355Z,17.63
2023-05-22T15:25:53.911Z,17.45
2023-05-22T15:31:14.366Z,19.02
2023-05-22T15:36:36.467Z,14.82
2023-05-22T15:42:05.727Z,22.02
2023-05-22T15:47:27.282Z,19.05
2023-05-22T15:52:47.733Z,13.73
2023-05-22T15:58:08.650Z,12.85
2023-05-22T16:03:29.371Z,16.17
2023-05-22T16:08:49.996Z,15.23
2023-05-22T16:14:10.672Z,16.70
2023-05-22T16:19:33.563Z,9.27
2023-05-22T16:24:54.438Z,10.98
2023-05-22T16:30:17.052Z,8.90
2023-05-22T16:35:38.386Z,12.88
2023-05-22T16:40:59.281Z,11.60
2023-05-22T16:46:19.974Z,13.68
2023-05-22T16:51:40.437Z,9.20
2023-05-22T16:57:00.948Z,7.10
2023-05-22T17:02:21.876Z,16.25
2023-05-22T17:07:42.553Z,8.45
2023-05-22T17:13:03.388Z,5.53
2023-05-22T17:18:24.060Z,8.85
2023-05-22T17:23:44.498Z,9.10
2023-05-22T17:29:05.454Z,8.63
2023-05-22T17:34:26.684Z,8.35
2023-05-22T17:39:47.526Z,13.55
2023-05-22T17:45:08.893Z,8.13
2023-05-22T17:50:29.309Z,9.10
2023-05-22T17:55:52.301Z,7.78
2023-05-22T18:01:13.166Z,8.05
2023-05-22T18:06:33.773Z,6.07
2023-05-22T18:11:54.420Z,6.30
2023-05-22T18:17:15.039Z,9.18
2023-05-22T18:22:37.847Z,13.82
2023-05-22T18:27:58.759Z,8.85
2023-05-22T18:33:20.178Z,5.97
2023-05-22T18:38:41.106Z,7.70
2023-05-22T18:44:01.314Z,6.38
2023-05-22T18:49:22.310Z,6.70
2023-05-22T18:54:42.868Z,5.30
2023-05-22T19:00:03.785Z,5.88
2023-05-22T19:05:26.167Z,6.93
2023-05-22T19:10:46.948Z,5.65
2023-05-22T19:16:07.604Z,7.70
2023-05-22T19:21:28.455Z,6.90
2023-05-22T19:26:49.053Z,7.72
2023-05-22T19:32:09.784Z,10.68
2023-05-22T19:37:30.291Z,13.48
2023-05-22T19:42:51.024Z,6.85
2023-05-22T19:48:11.947Z,8.55
2023-05-22T19:53:34.103Z,13.68
2023-05-22T19:58:54.664Z,13.32
2023-05-22T20:04:15.450Z,10.95
2023-05-22T20:09:36.051Z,11.80
2023-05-22T20:14:58.246Z,9.60
2023-05-22T20:20:19.707Z,15.63
2023-05-22T20:25:42.908Z,15.90
2023-05-22T20:31:05.844Z,17.67
2023-05-22T20:36:26.553Z,14.27
2023-05-22T20:41:49.856Z,14.60
2023-05-22T20:47:10.879Z,11.18
2023-05-22T20:52:31.456Z,8.10
2023-05-22T20:57:52.166Z,14.30
2023-05-22T21:03:12.964Z,10.65
2023-05-22T21:08:33.979Z,11.93
2023-05-22T21:13:54.461Z,16.00
2023-05-22T21:19:15.421Z,7.47
2023-05-22T21:24:36.373Z,7.38
2023-05-22T21:29:57.121Z,9.60
2023-05-22T21:35:17.728Z,12.70
2023-05-22T21:40:40.511Z,13.30
2023-05-22T21:46:01.281Z,10.57
2023-05-22T21:51:22.024Z,10.68
2023-05-22T21:56:42.800Z,9.45
2023-05-22T22:02:03.741Z,5.72
2023-05-22T22:07:24.050Z,6.88
2023-05-22T22:12:45.109Z,6.78
2023-05-22T22:18:06.118Z,15.95
2023-05-22T22:23:27.154Z,12.38
2023-05-22T22:28:47.993Z,12.00
2023-05-22T22:34:09.207Z,9.05
2023-05-22T22:39:29.902Z,10.57
2023-05-22T22:44:50.810Z,7.78
2023-05-22T22:50:11.324Z,14.73
2023-05-22T22:55:31.663Z,13.43
2023-05-22T23:00:52.378Z,17.45
2023-05-22T23:06:12.857Z,14.90
2023-05-22T23:11:39.925Z,26.77
2023-05-22T23:17:00.535Z,18.17
2023-05-22T23:22:21.189Z,22.55
2023-05-22T23:27:42.101Z,22.42
2023-05-22T23:33:02.787Z,23.85
2023-05-22T23:38:23.205Z,29.58
2023-05-22T23:43:44.928Z,35.40
2023-05-22T23:49:06.013Z,30.05
2023-05-22T23:54:26.538Z,26.30
2023-05-22T23:59:47.420Z,32.92
